Tropical Cyclones
[Index]
Main Index Home Page Stock Weather Photos Extreme Storms Discussion Storm News and Storm Chasing Reports Tropical Cyclones / Hurricanes / Typhoons Weather Data and Links Wild Fires / Bushfires Weather Observation Techniques Weather Picture Catalogue Tornado Pictures and Reports Stock Video Footage and DVDs for sale
Season 1946-1947 Tropical Cyclone 194709 Track Map
Season 1946-1947 Summaries: [BoM-AU] [JTWC-AU] [JTWC-SIO] [JTWC-SPAC] [JTWC-SH]
<<- Previous TC | JTWC 1946-1947 Season | Next TC ->>

click for intensity scale information  Lat/long Grid: Show Hide

 Date Labels: Show Hide

Joint Typhoon Warning Centre Cyclone Data

Name: 194709
Number: 44 / 4709

17 Jan 1947 00:00 UTC to 24 Jan 1947 00:00 UTC

    date/time    lat    long     hPa   cat  kts
1947-01-17 00   10.2   167.6                              
1947-01-17 06   10.5   167.2                              
1947-01-17 12   10.8   166.8                              
1947-01-17 18   11.1   166.4                              
1947-01-18 00   11.5   166.0                              
1947-01-18 06   11.8   165.6                              
1947-01-18 12   12.2   165.2                              
1947-01-18 18   12.5   164.8                              
1947-01-19 00   12.9   164.3                              
1947-01-19 06   13.3   163.7                              
1947-01-19 12   13.8   163.0                              
1947-01-19 18   14.2   162.5                              
1947-01-20 00   14.6   161.9                              
1947-01-20 06   15.1   161.3                              
1947-01-20 12   15.7   160.7                              
1947-01-20 18   16.2   160.3                              
1947-01-21 00   16.8   159.8                              
1947-01-21 06   17.7   159.0                              
1947-01-21 12   18.8   158.2                              
1947-01-21 18   19.8   157.6                              
1947-01-22 00   20.8   157.0                              
1947-01-22 06   21.8   156.5                              
1947-01-22 12   22.7   156.1                              
1947-01-22 18   23.9   155.7                              
1947-01-23 00   25.0   155.0                              
1947-01-23 06   25.8   154.0                              
1947-01-23 12   26.6   153.0                              
1947-01-23 18   27.3   152.0                              
1947-01-24 00   28.0   151.0                              
Winds are 1-min average.

Tropical cyclone tracks developed by Michael Bath using data from the Joint Typhoon Warning Centre Best Tracks and Google Maps.


[Australian Severe Weather index] [Copyright Notice] [Email Contacts] [Search This Site] [Privacy Policy]
Document: tropical_cyclone_194709.htm Updated: 18 September 2016